Time;durP1;ratioP1;P1;durP2;ratioP2;P2;SDS_P1;SDS_P2;PMS_P1;PMS_P2;Temp;Humidity;BMP_temperature;BMP_pressure;BME280_temperature;BME280_humidity;BME280_pressure;Samples;Min_cycle;Max_cycle;Signal;HPM_P1;HPM_P2
2022/06/17 00:02:13;;;;;;;6.70;2.75;;;;;;;;;;5111142;28;20081;-71
2022/06/17 00:04:39;;;;;;;4.30;2.33;;;;;;;;;;5111218;28;20464;-71
2022/06/17 00:07:12;;;;;;;4.82;2.50;;;;;;;;;;5111305;28;20104;-71
2022/06/17 00:09:38;;;;;;;5.45;2.75;;;;;;;;;;5111016;28;20431;-72
2022/06/17 00:12:07;;;;;;;6.70;2.65;;;;;;;;;;5111335;28;20491;-72
2022/06/17 00:15:11;;;;;;;5.70;2.67;;;;;;;;;;5111385;28;20028;-72
2022/06/17 00:17:21;;;;;;;5.53;2.88;;;;;;;;;;5110436;28;20418;-72
2022/06/17 00:19:47;;;;;;;5.43;2.90;;;;;;;;;;5111253;28;20036;-72
2022/06/17 00:24:38;;;;;;;4.93;2.70;;;;;;;;;;5111055;27;20394;-71
2022/06/17 00:27:06;;;;;;;5.68;2.65;;;;;;;;;;5111548;28;20019;-71
2022/06/17 00:29:32;;;;;;;4.95;2.95;;;;;;;;;;5111299;28;20023;-72
2022/06/17 00:32:20;;;;;;;4.35;2.33;;;;;;;;;;5112023;27;20851;-71
2022/06/17 00:34:46;;;;;;;4.95;2.58;;;;;;;;;;5111280;28;20028;-73
2022/06/17 00:37:14;;;;;;;4.43;2.78;;;;;;;;;;5111243;28;20024;-73
2022/06/17 00:41:52;;;;;;;6.68;3.00;;;;;;;;;;5111859;27;20397;-71
2022/06/17 00:45:04;;;;;;;5.57;2.75;;;;;;;;;;5111308;27;20392;-71
2022/06/17 00:48:58;;;;;;;5.05;2.97;;;;;;;;;;5111660;27;20457;-71
2022/06/17 00:51:25;;;;;;;5.80;3.30;;;;;;;;;;5110968;28;20055;-72
2022/06/17 00:53:59;;;;;;;7.03;3.50;;;;;;;;;;5111206;28;20369;-73
2022/06/17 00:56:35;;;;;;;8.38;3.50;;;;;;;;;;5111243;28;20019;-71
2022/06/17 00:59:01;;;;;;;8.52;4.32;;;;;;;;;;5110770;28;20464;-73
2022/06/17 01:02:14;;;;;;;7.20;3.22;;;;;;;;;;5112093;27;20392;-71
2022/06/17 01:07:24;;;;;;;6.45;3.75;;;;;;;;;;5111559;27;20389;-71
2022/06/17 01:10:01;;;;;;;7.20;3.88;;;;;;;;;;5111411;28;20032;-71
2022/06/17 01:12:31;;;;;;;5.70;3.50;;;;;;;;;;5111239;28;20098;-71
2022/06/17 01:14:58;;;;;;;8.18;3.88;;;;;;;;;;5111152;28;20023;-71
2022/06/17 01:18:13;;;;;;;5.97;3.58;;;;;;;;;;5112017;27;20453;-72
2022/06/17 01:22:27;;;;;;;7.13;3.40;;;;;;;;;;5111528;27;20838;-71
2022/06/17 01:28:45;;;;;;;6.72;3.60;;;;;;;;;;5111456;27;20396;-71
2022/06/17 01:31:12;;;;;;;7.93;4.10;;;;;;;;;;5111536;28;20107;-71
2022/06/17 01:35:36;;;;;;;6.68;3.42;;;;;;;;;;5112138;27;20392;-71
2022/06/17 01:38:56;;;;;;;6.63;4.18;;;;;;;;;;5112098;27;20585;-71
2022/06/17 01:42:27;;;;;;;5.47;3.33;;;;;;;;;;5173788;27;20317;-71
2022/06/17 01:47:33;;;;;;;7.38;3.80;;;;;;;;;;5111292;27;20769;-71
2022/06/17 01:51:07;;;;;;;8.80;3.85;;;;;;;;;;5111826;27;20108;-71
2022/06/17 01:53:35;;;;;;;7.80;4.25;;;;;;;;;;5111882;28;20440;-71
2022/06/17 01:57:08;;;;;;;9.68;4.03;;;;;;;;;;5111576;27;20408;-71
2022/06/17 02:01:00;;;;;;;7.20;3.85;;;;;;;;;;5111736;27;20397;-71
2022/06/17 02:03:29;;;;;;;7.22;4.03;;;;;;;;;;5126751;28;20031;-71
2022/06/17 02:06:05;;;;;;;6.70;4.00;;;;;;;;;;5111243;28;20058;-71
2022/06/17 02:08:31;;;;;;;8.00;4.47;;;;;;;;;;5111303;28;20498;-71
2022/06/17 02:11:21;;;;;;;7.10;4.30;;;;;;;;;;5112151;27;20872;-71
2022/06/17 02:13:47;;;;;;;7.80;4.20;;;;;;;;;;5111294;28;20487;-71
2022/06/17 02:16:14;;;;;;;7.75;4.38;;;;;;;;;;5111249;28;20403;-71
2022/06/17 02:18:41;;;;;;;6.68;3.92;;;;;;;;;;5109940;28;20472;-71
2022/06/17 02:21:10;;;;;;;7.65;4.63;;;;;;;;;;5111429;28;20019;-71
2022/06/17 02:29:53;;;;;;;8.50;5.45;;;;;;;;;;5111480;27;20388;-71
2022/06/17 02:36:02;;;;;;;7.35;4.35;;;;;;;;;;5111580;27;20442;-71
2022/06/17 02:38:30;;;;;;;8.40;5.05;;;;;;;;;;5110854;28;20020;-71
2022/06/17 02:41:08;;;;;;;9.15;5.03;;;;;;;;;;5111454;27;20389;-71
2022/06/17 02:44:30;;;;;;;7.55;4.35;;;;;;;;;;5110932;27;20396;-71
2022/06/17 02:46:56;;;;;;;11.63;4.78;;;;;;;;;;5111379;28;20365;-71
2022/06/17 02:56:15;;;;;;;8.20;4.45;;;;;;;;;;5111272;27;20392;-71
2022/06/17 02:59:06;;;;;;;11.48;5.30;;;;;;;;;;5111115;27;20461;-71
2022/06/17 03:01:36;;;;;;;9.68;4.55;;;;;;;;;;5111440;28;20430;-71
2022/06/17 03:04:07;;;;;;;10.07;4.72;;;;;;;;;;5111544;28;20416;-71
2022/06/17 03:07:12;;;;;;;7.30;5.05;;;;;;;;;;5111665;27;20765;-71
2022/06/17 03:09:38;;;;;;;8.05;4.97;;;;;;;;;;5110013;28;20035;-71
2022/06/17 03:12:11;;;;;;;6.75;4.18;;;;;;;;;;5110804;28;20020;-72
2022/06/17 03:14:56;;;;;;;6.90;4.33;;;;;;;;;;5109930;28;20464;-71
2022/06/17 03:19:27;;;;;;;6.57;4.18;;;;;;;;;;5111190;27;20393;-71
2022/06/17 03:24:11;;;;;;;9.73;6.00;;;;;;;;;;5104601;27;1452880;-71
2022/06/17 03:26:50;;;;;;;7.90;4.40;;;;;;;;;;5131646;27;20560;-71
2022/06/17 03:29:55;;;;;;;7.50;5.20;;;;;;;;;;5112034;27;20410;-71
2022/06/17 03:32:30;;;;;;;12.23;5.38;;;;;;;;;;5127095;28;20059;-71
2022/06/17 03:35:06;;;;;;;12.05;5.90;;;;;;;;;;5111472;27;20419;-71
2022/06/17 03:37:51;;;;;;;8.85;4.78;;;;;;;;;;5111534;28;20028;-71
2022/06/17 03:41:13;;;;;;;8.75;5.13;;;;;;;;;;5173012;27;20113;-71
2022/06/17 03:43:43;;;;;;;7.95;5.03;;;;;;;;;;5152517;27;20027;-71
2022/06/17 03:46:09;;;;;;;8.27;5.57;;;;;;;;;;5152578;27;20071;-71
2022/06/17 03:50:55;;;;;;;8.43;5.55;;;;;;;;;;5111791;27;20989;-71
2022/06/17 03:56:54;;;;;;;8.27;4.85;;;;;;;;;;5112102;27;20384;-71
2022/06/17 03:59:28;;;;;;;8.23;5.00;;;;;;;;;;5111511;28;20027;-71
2022/06/17 04:03:38;;;;;;;10.05;5.15;;;;;;;;;;5111974;27;20625;-71
2022/06/17 04:06:16;;;;;;;8.10;5.03;;;;;;;;;;5111447;28;20049;-71
2022/06/17 04:09:11;;;;;;;8.10;4.88;;;;;;;;;;5111206;28;20028;-71
2022/06/17 04:14:27;;;;;;;11.05;5.72;;;;;;;;;;5111371;27;20393;-70
2022/06/17 04:17:01;;;;;;;9.13;5.38;;;;;;;;;;5110898;28;20023;-71
2022/06/17 04:21:06;;;;;;;10.05;5.82;;;;;;;;;;5112071;27;20929;-71
2022/06/17 04:26:00;;;;;;;7.38;4.82;;;;;;;;;;5111560;27;20422;-72
2022/06/17 04:28:31;;;;;;;8.33;5.40;;;;;;;;;;5111453;28;20046;-71
2022/06/17 04:33:16;;;;;;;9.85;5.35;;;;;;;;;;5111813;27;20389;-71
2022/06/17 04:35:42;;;;;;;7.88;5.75;;;;;;;;;;5111072;28;20019;-71
2022/06/17 04:38:09;;;;;;;8.23;5.25;;;;;;;;;;5110758;28;20058;-71
2022/06/17 04:40:42;;;;;;;9.73;5.78;;;;;;;;;;5111219;28;20091;-71
2022/06/17 04:43:14;;;;;;;7.05;4.95;;;;;;;;;;5111085;28;20024;-71
2022/06/17 04:46:04;;;;;;;8.45;5.07;;;;;;;;;;5131940;27;20116;-71
2022/06/17 04:51:18;;;;;;;9.40;5.40;;;;;;;;;;5111168;27;20593;-71
2022/06/17 04:53:46;;;;;;;9.23;5.95;;;;;;;;;;5111312;28;20430;-71
2022/06/17 04:56:35;;;;;;;8.32;5.30;;;;;;;;;;5111209;28;20483;-71
2022/06/17 04:59:15;;;;;;;8.95;5.07;;;;;;;;;;5102808;28;20036;-70
2022/06/17 05:01:42;;;;;;;9.65;5.93;;;;;;;;;;5111250;28;20038;-70
2022/06/17 05:04:08;;;;;;;7.50;5.25;;;;;;;;;;5110609;28;20543;-70
2022/06/17 05:06:34;;;;;;;8.43;5.10;;;;;;;;;;5111110;28;20051;-70
2022/06/17 05:12:28;;;;;;;8.50;5.75;;;;;;;;;;5111074;27;20130;-70
2022/06/17 05:15:02;;;;;;;7.78;5.65;;;;;;;;;;5111271;28;20432;-70
2022/06/17 05:17:28;;;;;;;8.20;5.10;;;;;;;;;;5111328;28;20107;-70
2022/06/17 05:22:03;;;;;;;7.63;4.78;;;;;;;;;;5112176;27;20393;-71
2022/06/17 05:24:30;;;;;;;7.13;4.40;;;;;;;;;;5111328;28;20048;-70
2022/06/17 05:26:57;;;;;;;7.32;4.38;;;;;;;;;;5110939;28;20028;-71
2022/06/17 05:29:24;;;;;;;7.57;4.68;;;;;;;;;;5111217;28;20044;-71
2022/06/17 05:31:51;;;;;;;7.03;4.30;;;;;;;;;;5110062;28;20024;-71
2022/06/17 05:36:14;;;;;;;11.45;5.78;;;;;;;;;;5104685;27;20425;-74
2022/06/17 05:39:10;;;;;;;9.88;5.40;;;;;;;;;;5110498;27;20786;-71
2022/06/17 05:44:39;;;;;;;8.55;4.78;;;;;;;;;;5111273;27;20393;-73
2022/06/17 05:47:41;;;;;;;6.45;4.03;;;;;;;;;;5110901;27;20377;-73
2022/06/17 05:50:07;;;;;;;8.23;4.55;;;;;;;;;;5110699;28;20038;-72
2022/06/17 05:52:33;;;;;;;8.40;4.97;;;;;;;;;;5110937;28;20502;-72
2022/06/17 05:56:26;;;;;;;5.82;3.75;;;;;;;;;;5111385;27;20566;-71
2022/06/17 05:58:52;;;;;;;7.47;4.32;;;;;;;;;;5110553;28;20024;-72
2022/06/17 06:03:30;;;;;;;9.93;4.88;;;;;;;;;;5109197;27;20400;-72
2022/06/17 06:05:57;;;;;;;7.60;4.30;;;;;;;;;;5109133;28;20125;-72
2022/06/17 06:10:16;;;;;;;7.30;4.50;;;;;;;;;;5108955;27;20393;-70
2022/06/17 06:13:34;;;;;;;7.28;4.35;;;;;;;;;;5060998;28;20865;-71
2022/06/17 06:16:01;;;;;;;7.50;4.45;;;;;;;;;;5064587;28;20028;-70
2022/06/17 06:21:53;;;;;;;6.47;3.58;;;;;;;;;;5105227;27;20393;-70
2022/06/17 06:24:20;;;;;;;5.63;3.47;;;;;;;;;;5098703;28;20476;-71
2022/06/17 06:26:46;;;;;;;4.85;3.10;;;;;;;;;;5099048;28;20098;-71
2022/06/17 06:29:13;;;;;;;6.88;3.65;;;;;;;;;;5105619;28;20059;-70
2022/06/17 06:34:32;;;;;;;5.93;3.50;;;;;;;;;;5106712;27;20397;-71
2022/06/17 06:36:58;;;;;;;6.35;3.60;;;;;;;;;;5095366;28;20551;-71
2022/06/17 06:40:06;;;;;;;7.20;3.95;;;;;;;;;;5091377;27;20664;-71
2022/06/17 06:42:32;;;;;;;6.20;3.80;;;;;;;;;;5085188;28;20035;-70
2022/06/17 06:44:59;;;;;;;6.78;3.92;;;;;;;;;;5087268;28;20046;-71
2022/06/17 06:47:25;;;;;;;6.75;4.03;;;;;;;;;;5086686;28;20024;-72
2022/06/17 06:50:12;;;;;;;6.85;3.88;;;;;;;;;;5107626;27;20454;-71
2022/06/17 06:52:38;;;;;;;7.70;4.53;;;;;;;;;;5108662;28;20028;-71
2022/06/17 06:55:05;;;;;;;9.25;4.53;;;;;;;;;;5093884;28;20048;-72
2022/06/17 06:57:31;;;;;;;7.60;3.92;;;;;;;;;;5088032;28;20119;-71
2022/06/17 07:01:46;;;;;;;7.32;4.78;;;;;;;;;;5109590;27;20388;-68
2022/06/17 07:04:49;;;;;;;7.18;4.57;;;;;;;;;;5109820;27;20385;-69
2022/06/17 07:07:16;;;;;;;7.35;4.82;;;;;;;;;;5110659;28;20020;-68
2022/06/17 07:10:35;;;;;;;7.07;4.38;;;;;;;;;;5098028;27;20596;-72
2022/06/17 07:13:02;;;;;;;6.05;3.78;;;;;;;;;;5082977;28;20035;-71
2022/06/17 07:18:00;;;;;;;7.32;4.35;;;;;;;;;;5109234;27;20438;-71
2022/06/17 07:20:28;;;;;;;8.70;4.30;;;;;;;;;;5109404;28;20085;-75
2022/06/17 07:22:54;;;;;;;8.35;3.88;;;;;;;;;;5110348;28;20024;-72
2022/06/17 07:25:20;;;;;;;7.97;4.40;;;;;;;;;;5109899;28;20024;-73
2022/06/17 07:27:47;;;;;;;7.68;4.25;;;;;;;;;;5110237;28;20028;-71
2022/06/17 07:30:18;;;;;;;10.85;4.43;;;;;;;;;;5086571;28;20020;-71
2022/06/17 07:32:44;;;;;;;6.32;3.88;;;;;;;;;;5068791;28;20036;-71
2022/06/17 07:41:22;;;;;;;6.00;3.88;;;;;;;;;;5110231;27;20984;-68
2022/06/17 07:43:48;;;;;;;8.15;3.88;;;;;;;;;;5110326;28;20103;-67
2022/06/17 07:46:15;;;;;;;6.43;4.40;;;;;;;;;;5107340;28;20586;-69
2022/06/17 07:48:41;;;;;;;7.70;5.10;;;;;;;;;;5107101;28;20044;-71
2022/06/17 07:52:54;;;;;;;7.70;4.93;;;;;;;;;;4986034;27;3421556;-71
2022/06/17 07:55:20;;;;;;;9.98;5.50;;;;;;;;;;5079241;28;20054;-68
2022/06/17 07:57:47;;;;;;;8.38;5.03;;;;;;;;;;5072857;28;20515;-69
2022/06/17 08:01:53;;;;;;;8.10;4.90;;;;;;;;;;5108965;27;20571;-68
2022/06/17 08:04:19;;;;;;;6.50;4.30;;;;;;;;;;5109146;28;20031;-68
2022/06/17 08:06:49;;;;;;;7.60;4.07;;;;;;;;;;5107146;28;20039;-69
2022/06/17 08:09:19;;;;;;;6.90;4.05;;;;;;;;;;5110218;28;20051;-69
2022/06/17 08:11:45;;;;;;;7.25;4.40;;;;;;;;;;5108757;28;20050;-71
2022/06/17 08:14:12;;;;;;;7.65;4.80;;;;;;;;;;5108942;28;20024;-69
2022/06/17 08:16:38;;;;;;;6.80;4.25;;;;;;;;;;5093409;28;20052;-71
2022/06/17 08:19:07;;;;;;;6.13;4.25;;;;;;;;;;5089325;28;20514;-70
2022/06/17 08:21:33;;;;;;;6.72;3.70;;;;;;;;;;5089521;28;20661;-69
2022/06/17 08:24:00;;;;;;;6.38;4.20;;;;;;;;;;5109598;28;20023;-69
2022/06/17 08:27:03;;;;;;;6.95;4.15;;;;;;;;;;5109357;27;20388;-68
2022/06/17 08:29:48;;;;;;;6.70;4.18;;;;;;;;;;5103208;27;20419;-68
2022/06/17 08:33:39;;;;;;;7.15;4.30;;;;;;;;;;5106302;27;20462;-69
2022/06/17 08:36:07;;;;;;;7.60;4.43;;;;;;;;;;5093521;28;20016;-69
2022/06/17 08:38:35;;;;;;;6.63;3.75;;;;;;;;;;5092758;28;20033;-69
2022/06/17 08:41:08;;;;;;;7.00;4.20;;;;;;;;;;5083130;28;20017;-70
2022/06/17 08:43:40;;;;;;;6.90;4.35;;;;;;;;;;5075731;28;20481;-70
2022/06/17 08:46:25;;;;;;;7.47;4.57;;;;;;;;;;5077852;28;20042;-70
2022/06/17 08:48:59;;;;;;;6.03;4.20;;;;;;;;;;5086813;28;20125;-68
2022/06/17 08:51:32;;;;;;;7.18;4.32;;;;;;;;;;5089867;28;20033;-68
2022/06/17 08:54:16;;;;;;;6.95;4.45;;;;;;;;;;5088368;28;20529;-69
2022/06/17 08:57:01;;;;;;;6.63;3.90;;;;;;;;;;5088036;28;20047;-69
2022/06/17 08:59:42;;;;;;;5.82;3.72;;;;;;;;;;5089803;28;20099;-68
2022/06/17 09:02:25;;;;;;;11.15;4.15;;;;;;;;;;5089331;28;20107;-69
2022/06/17 09:07:11;;;;;;;7.13;4.38;;;;;;;;;;5060122;28;21385;-68
2022/06/17 09:09:46;;;;;;;6.10;3.80;;;;;;;;;;5050906;28;20051;-68
2022/06/17 09:12:38;;;;;;;8.30;3.80;;;;;;;;;;5041804;28;20029;-68
2022/06/17 09:15:07;;;;;;;5.00;3.40;;;;;;;;;;5039638;28;20056;-67
2022/06/17 09:17:43;;;;;;;6.22;3.80;;;;;;;;;;5047811;28;20104;-67
2022/06/17 09:20:11;;;;;;;7.38;4.15;;;;;;;;;;5044720;28;20392;-69
2022/06/17 09:22:41;;;;;;;5.60;2.97;;;;;;;;;;5047726;28;20049;-67
2022/06/17 09:25:13;;;;;;;6.20;3.70;;;;;;;;;;5048645;28;20418;-68
2022/06/17 09:27:41;;;;;;;4.82;3.28;;;;;;;;;;5051158;28;20420;-68
2022/06/17 09:30:20;;;;;;;9.98;3.65;;;;;;;;;;5047780;28;20480;-68
2022/06/17 09:32:51;;;;;;;7.63;3.45;;;;;;;;;;5039778;28;20030;-70
2022/06/17 09:35:18;;;;;;;6.95;3.88;;;;;;;;;;5042919;28;20032;-69
2022/06/17 09:37:47;;;;;;;7.65;3.70;;;;;;;;;;5047158;28;20026;-70
2022/06/17 09:40:19;;;;;;;7.25;4.18;;;;;;;;;;5048507;28;20104;-71
2022/06/17 09:42:49;;;;;;;6.60;3.60;;;;;;;;;;5048207;28;20029;-70
2022/06/17 09:45:18;;;;;;;9.27;3.70;;;;;;;;;;5047960;28;20109;-70
2022/06/17 09:47:48;;;;;;;6.38;3.83;;;;;;;;;;5047756;28;20123;-69
2022/06/17 09:50:24;;;;;;;5.57;3.25;;;;;;;;;;5047907;28;20032;-69
2022/06/17 09:53:52;;;;;;;7.80;3.45;;;;;;;;;;5109226;27;20567;-69
2022/06/17 09:56:25;;;;;;;6.80;3.35;;;;;;;;;;5109778;28;20056;-69
2022/06/17 09:59:11;;;;;;;5.25;3.33;;;;;;;;;;5103861;28;20059;-70
2022/06/17 10:01:38;;;;;;;6.07;3.33;;;;;;;;;;5107671;28;20103;-71
2022/06/17 10:04:08;;;;;;;7.60;3.28;;;;;;;;;;5099466;28;20472;-69
2022/06/17 10:06:34;;;;;;;7.00;3.42;;;;;;;;;;5098569;28;20027;-69
2022/06/17 10:09:06;;;;;;;7.70;3.50;;;;;;;;;;5102720;28;20814;-70
2022/06/17 10:11:50;;;;;;;7.10;3.50;;;;;;;;;;5102651;28;20020;-70
2022/06/17 10:14:22;;;;;;;5.97;3.33;;;;;;;;;;5105518;28;20035;-70
2022/06/17 10:20:12;;;;;;;5.93;2.75;;;;;;;;;;5094645;28;20067;-71
2022/06/17 10:22:44;;;;;;;5.47;3.15;;;;;;;;;;5087170;28;20024;-74
2022/06/17 10:25:28;;;;;;;5.32;3.30;;;;;;;;;;5102987;28;20073;-72
2022/06/17 10:28:03;;;;;;;5.82;3.10;;;;;;;;;;5106723;28;20492;-71
2022/06/17 10:30:48;;;;;;;4.38;2.60;;;;;;;;;;5106301;28;20476;-71
2022/06/17 10:33:15;;;;;;;6.50;3.13;;;;;;;;;;5100299;28;20122;-70
2022/06/17 10:35:42;;;;;;;5.10;3.63;;;;;;;;;;5102130;28;20076;-71
2022/06/17 10:38:12;;;;;;;5.75;3.05;;;;;;;;;;5103041;28;20572;-71
2022/06/17 10:40:40;;;;;;;6.53;2.97;;;;;;;;;;5103970;28;20020;-71
2022/06/17 10:43:10;;;;;;;6.63;2.67;;;;;;;;;;5106498;28;20036;-71
2022/06/17 10:45:36;;;;;;;6.85;2.67;;;;;;;;;;5106328;28;20043;-71
2022/06/17 10:48:06;;;;;;;4.80;2.30;;;;;;;;;;5107969;28;20541;-69
2022/06/17 10:50:33;;;;;;;5.22;2.60;;;;;;;;;;5106746;28;20020;-69
2022/06/17 10:52:59;;;;;;;4.10;2.70;;;;;;;;;;5105948;28;20047;-74
2022/06/17 10:55:30;;;;;;;7.72;2.58;;;;;;;;;;5106451;28;20126;-71
2022/06/17 10:58:12;;;;;;;3.63;1.95;;;;;;;;;;5105137;28;20066;-70
2022/06/17 11:00:42;;;;;;;3.70;2.20;;;;;;;;;;5105767;28;20081;-72
2022/06/17 11:03:15;;;;;;;3.72;2.65;;;;;;;;;;5102254;28;20055;-71
2022/06/17 11:05:41;;;;;;;4.60;1.98;;;;;;;;;;5093918;28;20376;-72
2022/06/17 11:08:19;;;;;;;3.78;2.05;;;;;;;;;;5094202;28;20089;-72
2022/06/17 11:10:51;;;;;;;4.18;2.17;;;;;;;;;;5093391;28;20093;-75
2022/06/17 11:13:17;;;;;;;;;;;;;;;;;;5091781;28;20035;-72
2022/06/17 11:15:48;;;;;;;5.25;2.40;;;;;;;;;;5090152;28;19908;-73
2022/06/17 11:18:17;;;;;;;3.25;1.83;;;;;;;;;;5089538;28;20792;-71
2022/06/17 11:20:54;;;;;;;7.47;2.83;;;;;;;;;;5076652;28;20075;-73
2022/06/17 11:23:41;;;;;;;5.38;3.00;;;;;;;;;;5091266;28;20429;-73
2022/06/17 11:26:07;;;;;;;7.07;2.90;;;;;;;;;;5072745;28;20024;-72
2022/06/17 11:28:35;;;;;;;6.30;2.88;;;;;;;;;;5086295;28;20515;-73
2022/06/17 11:31:02;;;;;;;4.45;2.80;;;;;;;;;;5083698;28;20032;-70
2022/06/17 11:33:43;;;;;;;6.80;4.60;;;;;;;;;;5075346;28;20385;-70
2022/06/17 11:36:17;;;;;;;4.20;2.55;;;;;;;;;;5074328;28;20028;-69
2022/06/17 11:38:43;;;;;;;6.00;3.22;;;;;;;;;;5079259;28;20082;-71
2022/06/17 11:41:10;;;;;;;6.10;2.58;;;;;;;;;;5091629;28;20099;-70
2022/06/17 11:43:41;;;;;;;5.93;2.25;;;;;;;;;;5095541;28;20476;-71
2022/06/17 11:46:24;;;;;;;4.78;2.90;;;;;;;;;;5095074;28;20036;-71
2022/06/17 11:48:53;;;;;;;4.45;2.33;;;;;;;;;;5095237;28;20088;-70
2022/06/17 11:51:25;;;;;;;4.55;2.40;;;;;;;;;;5095414;28;20024;-71
2022/06/17 11:53:54;;;;;;;3.45;2.05;;;;;;;;;;5095040;28;20040;-69
2022/06/17 11:56:31;;;;;;;4.43;2.25;;;;;;;;;;5095172;28;20361;-69
2022/06/17 11:59:00;;;;;;;2.75;1.90;;;;;;;;;;5093105;28;20057;-70
2022/06/17 12:01:26;;;;;;;4.35;2.80;;;;;;;;;;5094239;28;20017;-69
2022/06/17 12:03:52;;;;;;;4.32;2.05;;;;;;;;;;5094956;28;20030;-69
2022/06/17 12:06:29;;;;;;;3.97;2.25;;;;;;;;;;5094731;28;20093;-71
2022/06/17 12:09:02;;;;;;;6.18;2.03;;;;;;;;;;5094924;28;20059;-71
2022/06/17 12:11:37;;;;;;;5.93;2.03;;;;;;;;;;5094909;28;20476;-68
2022/06/17 12:14:05;;;;;;;5.68;2.30;;;;;;;;;;5094661;28;20117;-70
2022/06/17 12:16:40;;;;;;;4.95;3.05;;;;;;;;;;5093866;28;20027;-69
2022/06/17 12:19:09;;;;;;;4.60;2.00;;;;;;;;;;5076381;28;20046;-69
2022/06/17 12:21:41;;;;;;;4.45;1.65;;;;;;;;;;5073676;28;20020;-71
2022/06/17 12:24:23;;;;;;;4.25;1.67;;;;;;;;;;5071040;28;20028;-70
2022/06/17 12:26:55;;;;;;;3.08;1.60;;;;;;;;;;5073864;28;20086;-71
2022/06/17 12:29:38;;;;;;;3.30;1.70;;;;;;;;;;5072814;28;20123;-71
2022/06/17 12:32:14;;;;;;;5.55;1.80;;;;;;;;;;5072322;28;20048;-71
2022/06/17 12:34:43;;;;;;;4.70;1.83;;;;;;;;;;5074163;28;20016;-71
2022/06/17 12:37:18;;;;;;;2.47;1.63;;;;;;;;;;5074386;28;20025;-71
2022/06/17 12:39:47;;;;;;;2.38;1.63;;;;;;;;;;5073179;28;20176;-71
2022/06/17 12:42:40;;;;;;;8.07;2.35;;;;;;;;;;5069810;28;20035;-71
2022/06/17 12:45:09;;;;;;;2.88;1.95;;;;;;;;;;5064780;28;20489;-71
2022/06/17 12:47:52;;;;;;;6.47;1.85;;;;;;;;;;5070604;28;20029;-71
2022/06/17 12:53:15;;;;;;;4.07;1.73;;;;;;;;;;5070206;28;20052;-71
2022/06/17 12:56:00;;;;;;;5.10;1.98;;;;;;;;;;5072371;28;20027;-71
2022/06/17 12:58:45;;;;;;;6.82;2.15;;;;;;;;;;5073932;28;20020;-71
2022/06/17 13:01:18;;;;;;;3.97;1.70;;;;;;;;;;5072596;28;20392;-71
2022/06/17 13:03:58;;;;;;;1.70;1.20;;;;;;;;;;5073466;28;20017;-71
2022/06/17 13:06:27;;;;;;;3.67;1.98;;;;;;;;;;5073883;28;20049;-71
2022/06/17 13:09:08;;;;;;;2.35;1.40;;;;;;;;;;5073750;28;20046;-71
2022/06/17 13:11:34;;;;;;;3.88;1.52;;;;;;;;;;5073296;28;20020;-71
2022/06/17 13:14:07;;;;;;;2.95;1.40;;;;;;;;;;5072442;28;20031;-71
2022/06/17 13:16:33;;;;;;;2.80;1.63;;;;;;;;;;5073841;28;20021;-71
2022/06/17 13:19:29;;;;;;;4.38;1.30;;;;;;;;;;5073626;28;20028;-71
2022/06/17 13:21:59;;;;;;;3.25;2.03;;;;;;;;;;5060862;28;20405;-71
2022/06/17 13:24:31;;;;;;;5.57;2.03;;;;;;;;;;5073206;28;20104;-71
2022/06/17 13:27:00;;;;;;;3.25;1.60;;;;;;;;;;5073597;28;20066;-71
2022/06/17 13:29:35;;;;;;;3.35;1.30;;;;;;;;;;5073425;28;20514;-71
2022/06/17 13:32:05;;;;;;;3.33;1.83;;;;;;;;;;5072904;28;20077;-71
2022/06/17 13:34:34;;;;;;;3.00;1.40;;;;;;;;;;5073743;28;20025;-71
2022/06/17 13:37:27;;;;;;;3.60;1.63;;;;;;;;;;5073369;28;20017;-70
2022/06/17 13:39:56;;;;;;;3.75;1.70;;;;;;;;;;5070226;28;20397;-70
2022/06/17 13:42:24;;;;;;;2.97;1.67;;;;;;;;;;5071979;28;20032;-70
2022/06/17 13:44:55;;;;;;;3.03;1.50;;;;;;;;;;5072962;28;20035;-71
2022/06/17 13:47:29;;;;;;;4.60;2.00;;;;;;;;;;5073670;28;20023;-71
2022/06/17 13:50:08;;;;;;;3.33;1.98;;;;;;;;;;5073555;28;20386;-70
2022/06/17 13:52:48;;;;;;;3.97;1.90;;;;;;;;;;5072544;28;20048;-71
2022/06/17 13:55:25;;;;;;;5.30;2.10;;;;;;;;;;5073227;28;20418;-70
2022/06/17 13:57:59;;;;;;;4.05;2.10;;;;;;;;;;5073231;28;20025;-70
2022/06/17 14:00:34;;;;;;;3.45;2.15;;;;;;;;;;5073013;28;20458;-70
2022/06/17 14:03:02;;;;;;;6.22;2.55;;;;;;;;;;5073220;28;20028;-70
2022/06/17 14:05:40;;;;;;;3.53;2.20;;;;;;;;;;5072962;28;20089;-70
2022/06/17 14:08:16;;;;;;;3.90;2.55;;;;;;;;;;5072663;28;20074;-69
2022/06/17 14:10:45;;;;;;;4.05;1.80;;;;;;;;;;5073103;28;20021;-69
2022/06/17 14:13:17;;;;;;;3.35;1.85;;;;;;;;;;5072552;28;20561;-69
2022/06/17 14:16:09;;;;;;;5.65;2.63;;;;;;;;;;5072994;28;20048;-70
2022/06/17 14:18:55;;;;;;;4.50;1.77;;;;;;;;;;5070168;28;20041;-69
2022/06/17 14:21:25;;;;;;;4.55;2.10;;;;;;;;;;5072428;28;20033;-70
2022/06/17 14:23:54;;;;;;;3.17;1.88;;;;;;;;;;5072885;28;20550;-70
2022/06/17 14:26:36;;;;;;;2.47;1.80;;;;;;;;;;5072812;28;20044;-69
2022/06/17 14:29:06;;;;;;;5.55;2.08;;;;;;;;;;5072370;28;20029;-69
2022/06/17 14:31:35;;;;;;;5.43;1.77;;;;;;;;;;5073118;28;20396;-69
2022/06/17 14:34:03;;;;;;;3.17;1.90;;;;;;;;;;5072348;28;20028;-69
2022/06/17 14:36:45;;;;;;;4.50;1.70;;;;;;;;;;5072719;28;20055;-68
2022/06/17 14:39:25;;;;;;;5.40;2.03;;;;;;;;;;5074132;28;20031;-68
2022/06/17 14:42:05;;;;;;;5.03;1.95;;;;;;;;;;5076134;28;20465;-68
2022/06/17 14:44:39;;;;;;;3.70;1.85;;;;;;;;;;5076542;28;20048;-69
2022/06/17 14:47:23;;;;;;;6.65;1.90;;;;;;;;;;5076370;28;20044;-68
2022/06/17 14:50:08;;;;;;;2.92;1.90;;;;;;;;;;5075930;28;20033;-69
2022/06/17 14:52:35;;;;;;;6.75;1.90;;;;;;;;;;5076061;28;20036;-68
2022/06/17 14:55:04;;;;;;;3.80;1.85;;;;;;;;;;5075820;28;20016;-70
2022/06/17 14:57:32;;;;;;;2.92;1.83;;;;;;;;;;5075655;28;20029;-69
2022/06/17 15:00:18;;;;;;;6.18;2.47;;;;;;;;;;5074290;28;20055;-70
2022/06/17 15:02:46;;;;;;;11.48;2.60;;;;;;;;;;5075462;28;20092;-71
2022/06/17 15:05:18;;;;;;;4.22;2.30;;;;;;;;;;5076008;28;20016;-72
2022/06/17 15:07:55;;;;;;;5.40;2.03;;;;;;;;;;5075870;28;20020;-71
2022/06/17 15:10:26;;;;;;;4.10;2.15;;;;;;;;;;5073927;28;20090;-70
2022/06/17 15:12:57;;;;;;;5.47;2.47;;;;;;;;;;5074228;28;20388;-70
2022/06/17 15:15:25;;;;;;;7.13;2.67;;;;;;;;;;5073789;28;20101;-70
2022/06/17 15:17:55;;;;;;;5.10;2.50;;;;;;;;;;5073397;28;20028;-71
2022/06/17 15:20:24;;;;;;;5.50;1.92;;;;;;;;;;5073991;28;20083;-70
2022/06/17 15:22:56;;;;;;;6.90;2.78;;;;;;;;;;5073607;28;20047;-70
2022/06/17 15:25:22;;;;;;;;;;;;;;;;;;5072243;28;20389;-70
2022/06/17 15:27:48;;;;;;;7.78;2.58;;;;;;;;;;5074611;28;19904;-70
2022/06/17 15:30:15;;;;;;;11.63;3.22;;;;;;;;;;5075350;28;20138;-72
2022/06/17 15:32:44;;;;;;;3.58;2.03;;;;;;;;;;5075372;28;20037;-70
2022/06/17 15:35:16;;;;;;;7.40;2.45;;;;;;;;;;5075770;28;20492;-70
2022/06/17 15:37:48;;;;;;;5.05;2.58;;;;;;;;;;5075189;28;20025;-70
2022/06/17 15:40:20;;;;;;;3.92;2.22;;;;;;;;;;5075456;28;20477;-70
2022/06/17 15:43:08;;;;;;;5.05;2.70;;;;;;;;;;5075441;28;20016;-70
2022/06/17 15:45:35;;;;;;;6.00;2.50;;;;;;;;;;5074865;28;20028;-70
2022/06/17 15:48:09;;;;;;;4.93;2.30;;;;;;;;;;5075250;28;20062;-70
2022/06/17 15:50:40;;;;;;;5.05;2.25;;;;;;;;;;5075209;28;20098;-70
2022/06/17 15:53:09;;;;;;;4.05;2.42;;;;;;;;;;5074443;28;20550;-70
2022/06/17 15:55:40;;;;;;;6.57;2.78;;;;;;;;;;5075052;28;20021;-70
2022/06/17 15:58:21;;;;;;;4.72;2.50;;;;;;;;;;5075057;28;20024;-70
2022/06/17 16:00:47;;;;;;;6.18;2.40;;;;;;;;;;5075143;28;20021;-70
2022/06/17 16:03:28;;;;;;;5.20;2.80;;;;;;;;;;5079236;28;20024;-71
2022/06/17 16:06:05;;;;;;;5.75;2.65;;;;;;;;;;5091017;28;20027;-70
2022/06/17 16:08:34;;;;;;;5.32;2.40;;;;;;;;;;5095076;28;20024;-69
2022/06/17 16:11:19;;;;;;;4.25;2.67;;;;;;;;;;5094603;28;20103;-70
2022/06/17 16:13:50;;;;;;;6.18;2.42;;;;;;;;;;5094444;28;20116;-71
2022/06/17 16:16:22;;;;;;;4.57;2.60;;;;;;;;;;5092921;28;20492;-70
2022/06/17 16:19:02;;;;;;;4.87;2.20;;;;;;;;;;5094813;28;20027;-69
2022/06/17 16:21:29;;;;;;;6.38;2.80;;;;;;;;;;5094376;28;20028;-71
2022/06/17 16:24:08;;;;;;;4.78;2.83;;;;;;;;;;5094055;28;20027;-73
2022/06/17 16:26:48;;;;;;;3.78;2.30;;;;;;;;;;5093082;28;20101;-73
2022/06/17 16:29:14;;;;;;;5.03;2.78;;;;;;;;;;5092647;28;20372;-73
2022/06/17 16:33:50;;;;;;;8.95;2.60;;;;;;;;;;5107479;27;20488;-72
2022/06/17 16:36:25;;;;;;;3.88;2.50;;;;;;;;;;5109044;28;20058;-71
2022/06/17 16:38:53;;;;;;;6.93;3.08;;;;;;;;;;5108802;28;20035;-70
2022/06/17 16:44:13;;;;;;;14.77;3.45;;;;;;;;;;5108423;28;20047;-72
2022/06/17 16:47:40;;;;;;;6.90;3.40;;;;;;;;;;5108730;27;20703;-71
2022/06/17 16:51:36;;;;;;;7.30;3.70;;;;;;;;;;5109019;27;20426;-71
2022/06/17 16:54:03;;;;;;;9.13;5.10;;;;;;;;;;5082477;28;20115;-70
2022/06/17 16:56:31;;;;;;;6.93;4.28;;;;;;;;;;5088364;28;20016;-71
2022/06/17 16:58:58;;;;;;;13.57;4.70;;;;;;;;;;5090382;28;20429;-71
2022/06/17 17:01:24;;;;;;;7.35;4.65;;;;;;;;;;5088926;28;20371;-71
2022/06/17 17:03:52;;;;;;;7.00;4.75;;;;;;;;;;5088132;28;20028;-71
2022/06/17 17:06:18;;;;;;;8.27;4.68;;;;;;;;;;5088378;28;20103;-71
2022/06/17 17:08:45;;;;;;;7.88;5.28;;;;;;;;;;5087951;28;20481;-70
2022/06/17 17:12:03;;;;;;;7.88;4.85;;;;;;;;;;5109184;27;20901;-71
2022/06/17 17:14:29;;;;;;;9.35;4.95;;;;;;;;;;5109506;28;20143;-71
2022/06/17 17:16:56;;;;;;;7.05;4.70;;;;;;;;;;5110051;28;20501;-72
2022/06/17 17:19:24;;;;;;;9.00;4.82;;;;;;;;;;5111012;28;20035;-71